Terminal Aerodrome Forecast
Issued by NWS

Home | Current Version | Previous Version | Text Only | Print | Product List | Glossary On
Versions: 1 2 3 4 5 6 7 8 9 10 11 12 13 14 15 16
000
FTUS44 KEPZ 181300 AAA
TAFDMN
TAF AMD
KDMN 181347Z 1814/1912 12008KT 6SM -SHRA SCT015 OVC025
     FM182200 04005KT P6SM VCSH SCT015 OVC025
     FM190200 27007KT P6SM VCSH SCT025 BKN040
     FM190700 24005KT P6SM SCT050 BKN100 OVC150=

USA.gov is the U.S. government's official web portal to all federal, state and local government web resources and services.